Time;durP1;ratioP1;P1;durP2;ratioP2;P2;SDS_P1;SDS_P2;PMS_P1;PMS_P2;Temp;Humidity;BMP_temperature;BMP_pressure;BME280_temperature;BME280_humidity;BME280_pressure;Samples;Min_cycle;Max_cycle;Signal;HPM_P1;HPM_P2
2023/04/16 00:00:30;;;;;;;;;;;9.30;99.90;;;;;;5019939;28;20683;-81
2023/04/16 00:02:55;;;;;;;;;;;9.40;99.90;;;;;;5024151;28;19921;-80
2023/04/16 00:05:21;;;;;;;;;;;9.30;99.90;;;;;;5039431;28;19935;-80
2023/04/16 00:07:47;;;;;;;;;;;9.40;99.90;;;;;;5035407;28;19928;-79
2023/04/16 00:10:12;;;;;;;;;;;9.30;99.90;;;;;;5039542;28;19929;-80
2023/04/16 00:12:38;;;;;;;;;;;9.40;99.90;;;;;;5037248;28;20392;-80
2023/04/16 00:15:03;;;;;;;;;;;9.30;99.90;;;;;;5035979;28;19982;-80
2023/04/16 00:17:30;;;;;;;;;;;9.30;99.90;;;;;;5040058;28;19987;-80
2023/04/16 00:19:55;;;;;;;;;;;9.40;99.90;;;;;;5023365;28;19927;-80
2023/04/16 00:22:21;;;;;;;;;;;9.30;99.90;;;;;;5037953;28;19920;-80
2023/04/16 00:24:46;;;;;;;;;;;9.40;99.90;;;;;;5025472;28;19952;-80
2023/04/16 00:27:12;;;;;;;;;;;9.40;99.90;;;;;;5036789;28;20035;-80
2023/04/16 00:29:37;;;;;;;;;;;9.40;99.90;;;;;;5034972;28;19928;-80
2023/04/16 00:32:03;;;;;;;;;;;9.40;99.90;;;;;;5039367;28;20012;-80
2023/04/16 00:34:28;;;;;;;;;;;9.40;99.90;;;;;;5018381;28;19920;-80
2023/04/16 00:36:54;;;;;;;;;;;9.40;99.90;;;;;;5034401;28;19991;-80
2023/04/16 00:39:20;;;;;;;;;;;9.30;99.90;;;;;;5034035;28;19935;-80
2023/04/16 00:41:45;;;;;;;;;;;9.30;99.90;;;;;;5036193;28;19920;-81
2023/04/16 00:44:11;;;;;;;;;;;9.40;99.90;;;;;;5019880;28;20842;-80
2023/04/16 00:46:37;;;;;;;;;;;9.40;99.90;;;;;;5016156;28;19932;-80
2023/04/16 00:49:03;;;;;;;;;;;9.50;99.90;;;;;;5014823;28;20405;-80
2023/04/16 00:51:29;;;;;;;;;;;9.30;99.90;;;;;;5036325;28;19925;-80
2023/04/16 00:53:56;;;;;;;;;;;9.40;99.90;;;;;;5015957;28;19936;-80
2023/04/16 00:56:23;;;;;;;;;;;9.50;99.90;;;;;;5031476;28;20666;-80
2023/04/16 00:58:49;;;;;;;;;;;9.40;99.90;;;;;;5032568;28;20241;-80
2023/04/16 01:01:15;;;;;;;;;;;9.40;99.90;;;;;;5034299;28;19921;-80
2023/04/16 01:03:44;;;;;;;;;;;9.50;99.90;;;;;;5036274;28;20435;-80
2023/04/16 01:06:10;;;;;;;;;;;9.40;99.90;;;;;;5019441;28;20688;-79
2023/04/16 01:08:35;;;;;;;;;;;9.50;99.90;;;;;;5037564;28;19985;-80
2023/04/16 01:11:02;;;;;;;;;;;9.40;99.90;;;;;;5037147;28;20044;-79
2023/04/16 01:13:27;;;;;;;;;;;9.40;99.90;;;;;;5036565;28;20011;-80
2023/04/16 01:15:53;;;;;;;;;;;9.40;99.90;;;;;;5036790;28;20023;-80
2023/04/16 01:18:20;;;;;;;;;;;9.30;99.90;;;;;;5014407;28;20312;-80
2023/04/16 01:20:46;;;;;;;;;;;9.40;99.90;;;;;;5034440;28;19960;-80
2023/04/16 01:23:11;;;;;;;;;;;9.40;99.90;;;;;;5019364;28;19928;-79
2023/04/16 01:25:37;;;;;;;;;;;9.30;99.90;;;;;;5034396;28;19983;-80
2023/04/16 01:28:03;;;;;;;;;;;9.40;99.90;;;;;;5026910;28;20028;-80
2023/04/16 01:30:29;;;;;;;;;;;9.30;99.90;;;;;;5017549;28;19920;-80
2023/04/16 01:32:55;;;;;;;;;;;9.40;99.90;;;;;;5015880;28;19925;-80
2023/04/16 01:35:20;;;;;;;;;;;9.30;99.90;;;;;;5034911;28;19956;-80
2023/04/16 01:37:46;;;;;;;;;;;9.30;99.90;;;;;;5034495;28;19924;-80
2023/04/16 01:40:11;;;;;;;;;;;9.20;99.90;;;;;;5036196;28;19921;-81
2023/04/16 01:42:37;;;;;;;;;;;9.20;99.90;;;;;;5017291;28;20692;-80
2023/04/16 01:45:03;;;;;;;;;;;9.20;99.90;;;;;;5042390;28;19920;-80
2023/04/16 01:47:29;;;;;;;;;;;9.20;99.90;;;;;;5038337;28;19994;-80
2023/04/16 01:49:55;;;;;;;;;;;9.30;99.90;;;;;;5038560;28;20019;-80
2023/04/16 01:52:20;;;;;;;;;;;9.20;99.90;;;;;;5039503;28;19921;-80
2023/04/16 01:54:46;;;;;;;;;;;9.20;99.90;;;;;;5025554;28;19925;-80
2023/04/16 01:57:12;;;;;;;;;;;9.20;99.90;;;;;;5036543;28;19934;-80
2023/04/16 01:59:37;;;;;;;;;;;9.20;99.90;;;;;;5039524;28;19944;-80
2023/04/16 02:02:07;;;;;;;;;;;9.20;99.90;;;;;;5043367;28;20703;-81
2023/04/16 02:04:32;;;;;;;;;;;9.20;99.90;;;;;;5041311;28;19948;-80
2023/04/16 02:06:58;;;;;;;;;;;9.20;99.90;;;;;;5045721;28;20361;-80
2023/04/16 02:09:23;;;;;;;;;;;9.20;99.90;;;;;;5039327;28;19921;-80
2023/04/16 02:11:49;;;;;;;;;;;9.10;99.90;;;;;;5040014;28;19925;-79
2023/04/16 02:14:15;;;;;;;;;;;9.20;99.90;;;;;;5020454;28;19939;-80
2023/04/16 02:16:40;;;;;;;;;;;9.20;99.90;;;;;;5022310;28;19991;-80
2023/04/16 02:19:06;;;;;;;;;;;9.10;99.90;;;;;;5039755;28;19931;-80
2023/04/16 02:21:31;;;;;;;;;;;9.10;99.90;;;;;;5040950;28;19923;-80
2023/04/16 02:23:57;;;;;;;;;;;9.10;99.90;;;;;;5024069;28;19924;-81
2023/04/16 02:26:23;;;;;;;;;;;9.10;99.90;;;;;;5039526;28;19920;-81
2023/04/16 02:28:48;;;;;;;;;;;9.10;99.90;;;;;;5039202;28;19924;-81
2023/04/16 02:31:16;;;;;;;;;;;9.00;99.90;;;;;;5039580;28;20003;-81
2023/04/16 02:33:42;;;;;;;;;;;9.00;99.90;;;;;;5040951;28;19921;-81
2023/04/16 02:36:10;;;;;;;;;;;9.10;99.90;;;;;;5039392;28;19947;-81
2023/04/16 02:38:36;;;;;;;;;;;9.00;99.90;;;;;;5020044;28;20033;-80
2023/04/16 02:41:01;;;;;;;;;;;9.00;99.90;;;;;;5026904;28;19936;-80
2023/04/16 02:43:27;;;;;;;;;;;9.00;99.90;;;;;;5041929;28;19921;-80
2023/04/16 02:45:52;;;;;;;;;;;8.90;99.90;;;;;;5041363;28;19964;-80
2023/04/16 02:48:18;;;;;;;;;;;9.00;99.90;;;;;;5041761;28;19960;-80
2023/04/16 02:50:44;;;;;;;;;;;9.00;99.90;;;;;;5039818;28;19928;-80
2023/04/16 02:53:09;;;;;;;;;;;9.00;99.90;;;;;;5037448;28;19920;-80
2023/04/16 02:55:35;;;;;;;;;;;8.90;99.90;;;;;;5020941;28;19979;-80
2023/04/16 02:58:00;;;;;;;;;;;8.90;99.90;;;;;;5037719;28;19921;-80
2023/04/16 03:00:26;;;;;;;;;;;8.90;99.90;;;;;;5035846;28;19990;-79
2023/04/16 03:02:51;;;;;;;;;;;8.90;99.90;;;;;;5038821;28;19921;-80
2023/04/16 03:05:17;;;;;;;;;;;9.00;99.90;;;;;;5021565;28;20373;-80
2023/04/16 03:07:43;;;;;;;;;;;8.90;99.90;;;;;;5034630;28;19943;-80
2023/04/16 03:10:08;;;;;;;;;;;8.90;99.90;;;;;;5020216;28;19927;-80
2023/04/16 03:12:35;;;;;;;;;;;8.80;99.90;;;;;;5038474;28;19964;-80
2023/04/16 03:15:01;;;;;;;;;;;8.80;99.90;;;;;;5019287;28;19983;-80
2023/04/16 03:17:26;;;;;;;;;;;8.80;99.90;;;;;;5041277;28;19931;-80
2023/04/16 03:19:52;;;;;;;;;;;8.70;99.90;;;;;;5023072;28;20373;-80
2023/04/16 03:22:18;;;;;;;;;;;8.70;99.90;;;;;;5018182;28;19931;-79
2023/04/16 03:24:43;;;;;;;;;;;8.60;99.90;;;;;;5034007;28;20467;-80
2023/04/16 03:27:12;;;;;;;;;;;8.80;99.90;;;;;;5041351;28;20965;-80
2023/04/16 03:29:38;;;;;;;;;;;8.60;99.90;;;;;;5039660;28;19936;-80
2023/04/16 03:32:03;;;;;;;;;;;8.60;99.90;;;;;;5041012;28;19921;-79
2023/04/16 03:34:29;;;;;;;;;;;8.60;99.90;;;;;;5038668;28;19916;-80
2023/04/16 03:36:55;;;;;;;;;;;8.70;99.90;;;;;;5039680;28;20015;-80
2023/04/16 03:39:20;;;;;;;;;;;8.70;99.90;;;;;;5034861;28;19920;-80
2023/04/16 03:41:46;;;;;;;;;;;8.50;99.90;;;;;;5039827;28;20015;-79
2023/04/16 03:44:11;;;;;;;;;;;8.50;99.90;;;;;;5038003;28;20256;-80
2023/04/16 03:46:37;;;;;;;;;;;8.50;99.90;;;;;;5034698;28;19964;-80
2023/04/16 03:49:02;;;;;;;;;;;8.50;99.90;;;;;;5040314;28;20332;-80
2023/04/16 03:51:28;;;;;;;;;;;8.40;99.90;;;;;;5040722;28;19979;-80
2023/04/16 03:53:54;;;;;;;;;;;8.40;99.90;;;;;;5037215;28;20662;-80
2023/04/16 03:56:19;;;;;;;;;;;8.40;99.90;;;;;;5040545;28;19967;-80
2023/04/16 03:58:45;;;;;;;;;;;8.50;99.90;;;;;;5017818;28;19928;-79
2023/04/16 04:01:10;;;;;;;;;;;8.40;99.90;;;;;;5037191;28;20365;-80
2023/04/16 04:03:36;;;;;;;;;;;8.50;99.90;;;;;;5035329;28;20082;-80
2023/04/16 04:06:05;;;;;;;;;;;8.40;99.90;;;;;;5038911;28;19921;-80
2023/04/16 04:08:31;;;;;;;;;;;8.40;99.90;;;;;;5018881;28;19928;-80
2023/04/16 04:10:56;;;;;;;;;;;8.50;99.90;;;;;;5036733;28;19928;-80
2023/04/16 04:13:22;;;;;;;;;;;8.50;99.90;;;;;;5033350;28;19928;-80
2023/04/16 04:15:47;;;;;;;;;;;8.60;99.90;;;;;;5034724;28;20044;-80
2023/04/16 04:18:13;;;;;;;;;;;8.50;99.90;;;;;;5037482;28;19935;-80
2023/04/16 04:20:39;;;;;;;;;;;8.60;99.90;;;;;;5038939;28;20393;-80
2023/04/16 04:23:05;;;;;;;;;;;8.50;99.90;;;;;;5037933;28;19921;-80
2023/04/16 04:25:31;;;;;;;;;;;8.50;99.90;;;;;;5036334;28;19939;-80
2023/04/16 04:27:56;;;;;;;;;;;8.50;99.90;;;;;;5036041;28;19932;-80
2023/04/16 04:30:22;;;;;;;;;;;8.50;99.90;;;;;;5037757;28;20579;-80
2023/04/16 04:32:47;;;;;;;;;;;8.50;99.90;;;;;;5015635;28;19921;-80
2023/04/16 04:35:13;;;;;;;;;;;8.40;99.90;;;;;;5036280;28;20035;-80
2023/04/16 04:37:38;;;;;;;;;;;8.50;99.90;;;;;;5038155;28;19920;-80
2023/04/16 04:40:04;;;;;;;;;;;8.60;99.90;;;;;;5018761;28;19929;-80
2023/04/16 04:42:30;;;;;;;;;;;8.50;99.90;;;;;;5037158;28;19982;-80
2023/04/16 04:44:56;;;;;;;;;;;8.70;99.90;;;;;;5037426;28;20614;-80
2023/04/16 04:47:21;;;;;;;;;;;8.60;99.90;;;;;;5034749;28;19921;-80
2023/04/16 04:49:47;;;;;;;;;;;8.50;99.90;;;;;;5040792;28;19928;-80
2023/04/16 04:52:13;;;;;;;;;;;8.60;99.90;;;;;;5018553;28;19927;-80
2023/04/16 04:54:40;;;;;;;;;;;8.60;99.90;;;;;;5036857;28;19974;-80
2023/04/16 04:57:06;;;;;;;;;;;8.50;99.90;;;;;;5020284;28;19936;-80
2023/04/16 04:59:31;;;;;;;;;;;8.50;99.90;;;;;;5017566;28;19921;-79
2023/04/16 05:01:57;;;;;;;;;;;8.50;99.90;;;;;;5037793;28;19920;-80
2023/04/16 05:04:23;;;;;;;;;;;8.60;99.90;;;;;;5036195;28;20421;-80
2023/04/16 05:06:48;;;;;;;;;;;8.50;99.90;;;;;;5016551;28;20007;-80
2023/04/16 05:09:14;;;;;;;;;;;8.50;99.90;;;;;;5018680;28;19921;-80
2023/04/16 05:11:40;;;;;;;;;;;8.50;99.90;;;;;;5037427;28;19920;-77
2023/04/16 05:14:06;;;;;;;;;;;8.50;99.90;;;;;;5035933;28;19928;-80
2023/04/16 05:16:31;;;;;;;;;;;8.60;99.90;;;;;;5018230;28;19921;-80
2023/04/16 05:18:57;;;;;;;;;;;8.60;99.90;;;;;;5036271;28;19920;-80
2023/04/16 05:21:23;;;;;;;;;;;8.70;99.90;;;;;;5036506;28;20805;-80
2023/04/16 05:23:49;;;;;;;;;;;8.70;99.90;;;;;;5036278;28;19921;-81
2023/04/16 05:26:14;;;;;;;;;;;8.70;99.90;;;;;;5019694;28;19927;-80
2023/04/16 05:28:40;;;;;;;;;;;8.70;99.90;;;;;;5033834;28;19928;-81
2023/04/16 05:31:05;;;;;;;;;;;8.60;99.90;;;;;;5018757;28;19948;-80
2023/04/16 05:33:31;;;;;;;;;;;8.70;99.90;;;;;;5018045;28;19949;-80
2023/04/16 05:35:56;;;;;;;;;;;8.70;99.90;;;;;;5034935;28;19928;-80
2023/04/16 05:38:22;;;;;;;;;;;8.70;99.90;;;;;;5026223;28;20440;-80
2023/04/16 05:40:48;;;;;;;;;;;8.70;99.90;;;;;;5037030;28;19966;-80
2023/04/16 05:43:13;;;;;;;;;;;8.80;99.90;;;;;;5035318;28;19920;-80
2023/04/16 05:45:40;;;;;;;;;;;8.80;99.90;;;;;;5037040;28;19936;-79
2023/04/16 05:48:08;;;;;;;;;;;8.80;99.90;;;;;;5032463;28;19952;-80
2023/04/16 05:50:34;;;;;;;;;;;8.90;99.90;;;;;;5020652;28;19956;-80
2023/04/16 05:53:01;;;;;;;;;;;8.90;99.90;;;;;;5017745;28;19974;-80
2023/04/16 05:55:26;;;;;;;;;;;8.90;99.90;;;;;;5015605;28;19933;-80
2023/04/16 05:57:52;;;;;;;;;;;8.80;99.90;;;;;;5030324;28;19921;-80
2023/04/16 06:00:17;;;;;;;;;;;8.80;99.90;;;;;;5033347;28;19928;-79
2023/04/16 06:02:43;;;;;;;;;;;8.80;99.90;;;;;;5039083;28;19928;-81
2023/04/16 06:05:09;;;;;;;;;;;8.90;99.90;;;;;;5035048;28;19929;-80
2023/04/16 06:07:34;;;;;;;;;;;9.00;99.90;;;;;;5012812;28;19928;-81
2023/04/16 06:10:00;;;;;;;;;;;9.10;99.90;;;;;;5035024;28;19974;-80
2023/04/16 06:12:26;;;;;;;;;;;9.10;99.90;;;;;;5017756;28;19928;-80
2023/04/16 06:14:52;;;;;;;;;;;9.10;99.90;;;;;;5034016;28;19947;-80
2023/04/16 06:17:18;;;;;;;;;;;9.10;99.90;;;;;;5016775;28;19928;-79
2023/04/16 06:19:44;;;;;;;;;;;9.20;99.90;;;;;;5035107;28;20007;-80
2023/04/16 06:22:09;;;;;;;;;;;9.20;99.90;;;;;;5033928;28;19921;-81
2023/04/16 06:24:35;;;;;;;;;;;9.30;99.90;;;;;;5036122;28;19920;-80
2023/04/16 06:27:01;;;;;;;;;;;9.30;99.90;;;;;;5036034;28;19928;-81
2023/04/16 06:29:27;;;;;;;;;;;9.30;99.90;;;;;;5035586;28;19929;-81
2023/04/16 06:31:53;;;;;;;;;;;9.30;99.90;;;;;;5039595;28;19963;-80
2023/04/16 06:34:18;;;;;;;;;;;9.30;99.90;;;;;;5041019;28;20023;-80
2023/04/16 06:36:44;;;;;;;;;;;9.40;99.90;;;;;;5037504;28;20170;-80
2023/04/16 06:39:10;;;;;;;;;;;9.40;99.90;;;;;;5017977;28;19921;-80
2023/04/16 06:41:35;;;;;;;;;;;9.50;99.90;;;;;;5038027;28;19955;-81
2023/04/16 06:44:01;;;;;;;;;;;9.60;99.90;;;;;;5039618;28;19920;-80
2023/04/16 06:46:26;;;;;;;;;;;9.60;99.90;;;;;;5021237;28;19991;-80
2023/04/16 06:48:52;;;;;;;;;;;9.70;99.90;;;;;;5038083;28;19927;-81
2023/04/16 06:51:18;;;;;;;;;;;9.60;99.90;;;;;;5018489;28;19970;-80
2023/04/16 06:53:43;;;;;;;;;;;9.70;99.90;;;;;;5038617;28;19952;-80
2023/04/16 06:56:09;;;;;;;;;;;9.80;99.90;;;;;;5036663;28;20020;-80
2023/04/16 06:58:35;;;;;;;;;;;9.90;99.90;;;;;;5018426;28;19921;-80
2023/04/16 07:01:01;;;;;;;;;;;9.90;99.90;;;;;;5037198;28;19920;-80
2023/04/16 07:03:27;;;;;;;;;;;10.00;99.90;;;;;;5039656;28;19921;-80
2023/04/16 07:05:52;;;;;;;;;;;10.00;99.90;;;;;;5039443;28;19920;-81
2023/04/16 07:08:18;;;;;;;;;;;10.10;99.90;;;;;;5035285;28;19920;-80
2023/04/16 07:10:44;;;;;;;;;;;10.10;99.90;;;;;;5037282;28;19969;-80
2023/04/16 07:13:09;;;;;;;;;;;10.10;99.90;;;;;;5021366;28;19928;-80
2023/04/16 07:15:35;;;;;;;;;;;10.10;99.90;;;;;;5037474;28;21357;-80
2023/04/16 07:18:01;;;;;;;;;;;10.10;99.90;;;;;;5036349;28;19921;-80
2023/04/16 07:20:26;;;;;;;;;;;10.00;99.90;;;;;;5037889;28;20305;-80
2023/04/16 07:22:52;;;;;;;;;;;10.20;99.90;;;;;;5036887;28;19920;-80
2023/04/16 07:25:17;;;;;;;;;;;10.30;99.90;;;;;;5035723;28;20333;-80
2023/04/16 07:27:43;;;;;;;;;;;10.20;99.90;;;;;;5020816;28;20003;-80
2023/04/16 07:30:09;;;;;;;;;;;10.00;99.90;;;;;;5030934;28;19928;-80
2023/04/16 07:32:35;;;;;;;;;;;10.10;99.90;;;;;;5038271;28;19928;-80
2023/04/16 07:35:00;;;;;;;;;;;10.20;99.90;;;;;;5038464;28;19920;-80
2023/04/16 07:37:26;;;;;;;;;;;10.20;99.90;;;;;;5036119;28;19980;-80
2023/04/16 07:39:51;;;;;;;;;;;10.20;99.90;;;;;;5037428;28;19955;-80
2023/04/16 07:42:17;;;;;;;;;;;10.10;99.90;;;;;;5022220;28;19931;-80
2023/04/16 07:44:43;;;;;;;;;;;10.10;99.90;;;;;;5036926;28;19929;-80
2023/04/16 07:47:08;;;;;;;;;;;10.10;99.90;;;;;;5030766;28;19960;-81
2023/04/16 07:49:34;;;;;;;;;;;10.10;99.90;;;;;;5018372;28;19920;-79
2023/04/16 07:52:00;;;;;;;;;;;10.00;99.90;;;;;;5037464;28;19959;-82
2023/04/16 07:54:25;;;;;;;;;;;10.00;99.90;;;;;;5035778;28;19921;-80
2023/04/16 07:56:51;;;;;;;;;;;10.10;99.90;;;;;;5036469;28;19979;-80
2023/04/16 07:59:22;;;;;;;;;;;10.10;99.90;;;;;;5017827;28;19983;-80
2023/04/16 08:01:48;;;;;;;;;;;10.30;99.90;;;;;;5036474;28;19920;-80
2023/04/16 08:04:16;;;;;;;;;;;10.20;99.90;;;;;;5011472;28;20656;-80
2023/04/16 08:06:41;;;;;;;;;;;10.40;99.90;;;;;;5029880;28;19936;-80
2023/04/16 08:09:07;;;;;;;;;;;10.60;99.90;;;;;;5023803;28;19928;-80
2023/04/16 08:11:33;;;;;;;;;;;10.70;99.90;;;;;;5027474;28;19921;-80
2023/04/16 08:13:58;;;;;;;;;;;10.70;99.90;;;;;;5036507;28;20044;-80
2023/04/16 08:16:24;;;;;;;;;;;10.90;99.90;;;;;;5033415;28;19928;-80
2023/04/16 08:18:49;;;;;;;;;;;10.90;99.90;;;;;;5030472;28;20007;-80
2023/04/16 08:21:15;;;;;;;;;;;11.10;99.90;;;;;;5031551;28;19921;-80
2023/04/16 08:23:40;;;;;;;;;;;11.10;99.90;;;;;;5034615;28;19928;-80
2023/04/16 08:26:06;;;;;;;;;;;11.20;99.90;;;;;;5014836;28;20380;-80
2023/04/16 08:28:32;;;;;;;;;;;11.20;99.90;;;;;;5034404;28;19979;-80
2023/04/16 08:30:57;;;;;;;;;;;11.30;99.90;;;;;;5037235;28;19987;-80
2023/04/16 08:33:23;;;;;;;;;;;11.50;99.90;;;;;;5029423;28;20286;-80
2023/04/16 08:35:48;;;;;;;;;;;11.50;99.90;;;;;;5018668;28;20421;-80
2023/04/16 08:38:14;;;;;;;;;;;11.60;99.90;;;;;;5033457;28;19980;-80
2023/04/16 08:40:46;;;;;;;;;;;11.40;99.90;;;;;;5033838;28;19924;-80
2023/04/16 08:43:13;;;;;;;;;;;11.70;99.90;;;;;;5033985;28;19921;-80
2023/04/16 08:45:41;;;;;;;;;;;11.70;99.90;;;;;;5036052;28;19956;-80
2023/04/16 08:48:07;;;;;;;;;;;11.90;99.90;;;;;;5015143;28;19983;-80
2023/04/16 08:50:33;;;;;;;;;;;12.00;99.90;;;;;;5017323;28;20007;-80
2023/04/16 08:53:02;;;;;;;;;;;12.30;99.90;;;;;;5034759;28;19928;-80
2023/04/16 08:55:40;;;;;;;;;;;12.50;99.90;;;;;;5034120;28;19975;-80
2023/04/16 08:58:26;;;;;;;;;;;12.50;99.90;;;;;;5033679;28;20031;-80
2023/04/16 09:00:52;;;;;;;;;;;12.50;99.90;;;;;;5032481;28;19921;-80
2023/04/16 09:03:20;;;;;;;;;;;12.80;99.90;;;;;;5034095;28;19924;-80
2023/04/16 09:05:46;;;;;;;;;;;12.80;99.90;;;;;;5033919;28;19925;-80
2023/04/16 09:08:11;;;;;;;;;;;12.90;99.90;;;;;;5014200;28;19967;-80
2023/04/16 09:10:37;;;;;;;;;;;12.70;99.90;;;;;;5031685;28;19931;-80
2023/04/16 09:13:02;;;;;;;;;;;13.00;99.90;;;;;;5017047;28;20024;-80
2023/04/16 09:15:28;;;;;;;;;;;12.80;99.90;;;;;;5015038;28;20383;-80
2023/04/16 09:17:55;;;;;;;;;;;12.90;99.90;;;;;;5031139;28;19920;-80
2023/04/16 09:20:21;;;;;;;;;;;12.70;99.90;;;;;;5032970;28;19929;-80
2023/04/16 09:22:47;;;;;;;;;;;12.70;99.90;;;;;;5034683;28;19936;-80
2023/04/16 09:25:13;;;;;;;;;;;13.10;99.90;;;;;;5015688;28;20023;-80
2023/04/16 09:27:38;;;;;;;;;;;13.10;99.90;;;;;;5024251;28;19969;-80
2023/04/16 09:30:24;;;;;;;;;;;13.50;99.90;;;;;;5013552;28;20636;-80
2023/04/16 09:32:51;;;;;;;;;;;13.80;99.90;;;;;;5015414;28;19928;-79
2023/04/16 09:35:17;;;;;;;;;;;14.00;99.90;;;;;;5015767;28;19925;-80
2023/04/16 09:37:43;;;;;;;;;;;13.60;99.90;;;;;;5014813;28;19943;-80
2023/04/16 09:40:09;;;;;;;;;;;13.40;99.90;;;;;;4996581;28;20482;-80
2023/04/16 09:42:35;;;;;;;;;;;13.60;99.90;;;;;;4999928;28;19963;-81
2023/04/16 09:45:01;;;;;;;;;;;13.30;99.90;;;;;;5003720;28;19986;-80
2023/04/16 09:47:43;;;;;;;;;;;13.30;99.90;;;;;;5019386;28;20515;-80
2023/04/16 09:50:09;;;;;;;;;;;13.40;99.90;;;;;;5010856;28;19921;-80
2023/04/16 09:52:35;;;;;;;;;;;13.80;99.90;;;;;;4999984;28;19928;-80
2023/04/16 09:55:01;;;;;;;;;;;13.50;99.90;;;;;;5000394;28;19921;-80
2023/04/16 09:57:28;;;;;;;;;;;13.50;99.90;;;;;;4999152;28;20440;-76
2023/04/16 09:59:57;;;;;;;;;;;13.40;99.90;;;;;;4999613;28;19951;-76
2023/04/16 10:02:27;;;;;;;;;;;13.60;99.90;;;;;;4986681;28;20565;-77
2023/04/16 10:04:53;;;;;;;;;;;13.60;99.90;;;;;;4994836;28;19948;-80
2023/04/16 10:07:19;;;;;;;;;;;13.70;99.90;;;;;;5002486;28;19920;-80
2023/04/16 10:09:48;;;;;;;;;;;13.70;99.90;;;;;;5001615;28;19921;-80
2023/04/16 10:12:14;;;;;;;;;;;13.70;99.90;;;;;;5006272;28;19928;-80
2023/04/16 10:14:40;;;;;;;;;;;13.50;99.90;;;;;;5002506;28;19924;-80
2023/04/16 10:17:06;;;;;;;;;;;13.70;99.90;;;;;;5007607;28;20015;-80
2023/04/16 10:19:32;;;;;;;;;;;13.80;99.90;;;;;;5004193;28;19920;-80
2023/04/16 10:21:58;;;;;;;;;;;13.80;99.90;;;;;;5017816;28;20392;-80
2023/04/16 10:24:33;;;;;;;;;;;14.00;99.90;;;;;;4998757;28;19921;-79
2023/04/16 10:26:59;;;;;;;;;;;14.00;99.90;;;;;;4975470;28;20004;-80
2023/04/16 10:29:25;;;;;;;;;;;14.20;99.90;;;;;;4978148;28;19937;-79
2023/04/16 10:31:51;;;;;;;;;;;14.00;99.90;;;;;;4990824;28;19928;-80
2023/04/16 10:34:18;;;;;;;;;;;14.10;99.90;;;;;;4970412;28;19926;-78
2023/04/16 10:36:47;;;;;;;;;;;14.20;99.90;;;;;;4991930;28;20007;-78
2023/04/16 10:39:16;;;;;;;;;;;14.80;99.90;;;;;;5007075;28;19921;-79
2023/04/16 10:41:41;;;;;;;;;;;14.70;99.90;;;;;;5013455;28;19921;-78
2023/04/16 10:44:11;;;;;;;;;;;14.30;99.90;;;;;;5015998;28;19956;-79
2023/04/16 10:46:40;;;;;;;;;;;14.90;99.90;;;;;;5030797;28;19921;-79
2023/04/16 10:49:12;;;;;;;;;;;15.20;99.90;;;;;;5014473;28;19920;-79
2023/04/16 10:51:38;;;;;;;;;;;15.10;99.90;;;;;;4997862;28;20662;-78
2023/04/16 10:54:18;;;;;;;;;;;15.40;99.90;;;;;;5008189;28;19929;-79
2023/04/16 10:56:44;;;;;;;;;;;15.30;99.90;;;;;;5011975;28;20298;-78
2023/04/16 10:59:10;;;;;;;;;;;15.50;99.90;;;;;;5000020;28;20266;-77
2023/04/16 11:01:39;;;;;;;;;;;15.60;99.90;;;;;;5000762;28;19948;-79
2023/04/16 11:04:20;;;;;;;;;;;15.80;99.90;;;;;;5015637;28;19921;-79
2023/04/16 11:07:05;;;;;;;;;;;15.80;99.90;;;;;;5017965;28;19920;-79
2023/04/16 11:09:46;;;;;;;;;;;15.80;99.90;;;;;;5013324;28;19921;-79
2023/04/16 11:12:15;;;;;;;;;;;15.70;99.90;;;;;;5014190;28;19920;-79
2023/04/16 11:14:41;;;;;;;;;;;15.30;99.90;;;;;;5014905;28;19928;-78
2023/04/16 11:17:07;;;;;;;;;;;15.50;99.90;;;;;;5029643;28;19951;-79
2023/04/16 11:19:34;;;;;;;;;;;15.20;99.90;;;;;;5015571;28;20385;-79
2023/04/16 11:22:00;;;;;;;;;;;15.60;99.90;;;;;;5031967;28;20290;-79
2023/04/16 11:24:30;;;;;;;;;;;15.50;99.90;;;;;;5018755;28;19921;-80
2023/04/16 11:26:55;;;;;;;;;;;15.70;99.90;;;;;;5031086;28;19921;-79
2023/04/16 11:29:21;;;;;;;;;;;15.70;99.90;;;;;;5028833;28;19920;-79
2023/04/16 11:31:50;;;;;;;;;;;15.80;99.90;;;;;;5010671;28;19929;-79
2023/04/16 11:34:16;;;;;;;;;;;15.90;99.90;;;;;;5014617;28;19929;-79
2023/04/16 11:36:42;;;;;;;;;;;16.50;99.90;;;;;;5028641;28;19935;-79
2023/04/16 11:39:08;;;;;;;;;;;16.00;99.90;;;;;;5034755;28;19924;-78
2023/04/16 11:41:34;;;;;;;;;;;16.40;99.90;;;;;;5017493;28;19920;-79
2023/04/16 11:44:15;;;;;;;;;;;16.70;99.90;;;;;;5016571;28;19944;-78
2023/04/16 11:46:42;;;;;;;;;;;16.40;99.90;;;;;;5014246;28;19991;-79
2023/04/16 11:49:07;;;;;;;;;;;16.40;99.90;;;;;;5005880;28;20075;-78
2023/04/16 11:51:38;;;;;;;;;;;16.60;99.90;;;;;;4994449;28;20386;-79
2023/04/16 11:54:03;;;;;;;;;;;16.30;99.90;;;;;;5007395;28;19986;-79
2023/04/16 11:56:30;;;;;;;;;;;15.70;99.90;;;;;;5008589;28;19924;-79
2023/04/16 11:59:25;;;;;;;;;;;16.00;99.90;;;;;;4996398;28;19932;-79
2023/04/16 12:01:54;;;;;;;;;;;15.90;99.90;;;;;;4995261;28;19925;-79
2023/04/16 12:04:21;;;;;;;;;;;15.80;99.90;;;;;;5017860;28;19928;-79
2023/04/16 12:07:08;;;;;;;;;;;16.10;99.90;;;;;;4992961;28;19921;-79
2023/04/16 12:09:35;;;;;;;;;;;15.80;99.90;;;;;;5010156;28;20491;-79
2023/04/16 12:12:19;;;;;;;;;;;15.90;99.90;;;;;;5014679;28;20007;-78
2023/04/16 12:14:49;;;;;;;;;;;15.90;99.90;;;;;;5012108;28;19928;-78
2023/04/16 12:17:20;;;;;;;;;;;15.50;99.90;;;;;;5026856;28;20286;-79
2023/04/16 12:19:50;;;;;;;;;;;15.80;99.90;;;;;;5014761;28;20060;-79
2023/04/16 12:22:16;;;;;;;;;;;15.70;99.90;;;;;;4990813;28;19947;-79
2023/04/16 12:24:42;;;;;;;;;;;16.00;99.90;;;;;;5004818;28;19974;-79
2023/04/16 12:27:07;;;;;;;;;;;16.60;99.90;;;;;;5002721;28;19936;-78
2023/04/16 12:29:33;;;;;;;;;;;16.70;99.90;;;;;;4997660;28;19921;-79
2023/04/16 12:31:59;;;;;;;;;;;16.70;99.90;;;;;;4999469;28;19967;-79
2023/04/16 12:34:24;;;;;;;;;;;16.90;99.90;;;;;;5003297;28;19928;-79
2023/04/16 12:37:06;;;;;;;;;;;16.40;99.90;;;;;;5000503;28;20159;-79
2023/04/16 12:39:32;;;;;;;;;;;16.70;99.90;;;;;;5020329;28;19921;-79
2023/04/16 12:41:57;;;;;;;;;;;16.70;99.90;;;;;;5001390;28;20661;-78
2023/04/16 12:44:23;;;;;;;;;;;16.40;99.90;;;;;;5020720;28;19921;-79
2023/04/16 12:46:48;;;;;;;;;;;16.10;99.90;;;;;;5019753;28;19921;-79
2023/04/16 12:49:14;;;;;;;;;;;15.90;99.90;;;;;;5002081;28;19936;-80
2023/04/16 12:51:39;;;;;;;;;;;15.70;99.90;;;;;;5003110;28;19928;-78
2023/04/16 12:54:09;;;;;;;;;;;15.50;99.90;;;;;;4998228;28;19921;-78
2023/04/16 12:56:35;;;;;;;;;;;15.70;99.90;;;;;;5003162;28;19928;-79
2023/04/16 12:59:00;;;;;;;;;;;15.70;99.90;;;;;;5020647;28;19970;-79
2023/04/16 13:01:26;;;;;;;;;;;15.80;99.90;;;;;;5018256;28;19928;-80
2023/04/16 13:03:52;;;;;;;;;;;15.70;99.90;;;;;;4999637;28;19921;-79
2023/04/16 13:06:17;;;;;;;;;;;15.70;99.90;;;;;;5020105;28;20500;-80
2023/04/16 13:08:43;;;;;;;;;;;15.90;99.90;;;;;;5020686;28;19971;-79
2023/04/16 13:11:09;;;;;;;;;;;15.80;99.90;;;;;;5015062;28;19920;-80
2023/04/16 13:13:35;;;;;;;;;;;15.60;99.90;;;;;;5019318;28;19935;-79
2023/04/16 13:16:02;;;;;;;;;;;15.40;99.90;;;;;;5021198;28;19924;-78
2023/04/16 13:18:28;;;;;;;;;;;15.40;99.90;;;;;;5021971;28;19931;-79
2023/04/16 13:20:54;;;;;;;;;;;15.40;99.90;;;;;;5021751;28;19921;-81
2023/04/16 13:23:20;;;;;;;;;;;15.50;99.90;;;;;;5017710;28;21522;-79
2023/04/16 13:25:45;;;;;;;;;;;15.40;99.90;;;;;;5017491;28;19920;-80
2023/04/16 13:28:11;;;;;;;;;;;15.60;99.90;;;;;;5013931;28;19999;-80
2023/04/16 13:30:37;;;;;;;;;;;15.60;99.90;;;;;;5024224;28;19921;-80
2023/04/16 13:33:02;;;;;;;;;;;15.80;99.90;;;;;;5038955;28;19921;-79
2023/04/16 13:35:28;;;;;;;;;;;15.90;99.90;;;;;;5012770;28;20659;-79
2023/04/16 13:37:54;;;;;;;;;;;15.90;99.90;;;;;;5018563;28;19921;-79
2023/04/16 13:40:19;;;;;;;;;;;15.60;99.90;;;;;;5026657;28;19983;-80
2023/04/16 13:42:45;;;;;;;;;;;15.50;99.90;;;;;;4978280;28;19983;-80
2023/04/16 13:45:10;;;;;;;;;;;15.80;99.90;;;;;;5008250;28;19928;-79
2023/04/16 13:47:39;;;;;;;;;;;16.10;99.90;;;;;;5015588;28;19928;-79
2023/04/16 13:50:04;;;;;;;;;;;16.20;99.90;;;;;;4985810;28;19974;-79
2023/04/16 13:52:30;;;;;;;;;;;16.20;99.90;;;;;;5011482;28;19925;-80
2023/04/16 13:54:55;;;;;;;;;;;16.40;99.90;;;;;;5009511;28;19966;-79
2023/04/16 13:57:21;;;;;;;;;;;16.10;99.90;;;;;;4991390;28;19928;-79
2023/04/16 13:59:47;;;;;;;;;;;16.50;99.90;;;;;;5010430;28;19917;-80
2023/04/16 14:02:12;;;;;;;;;;;16.30;99.90;;;;;;5028967;28;19920;-79
2023/04/16 14:04:38;;;;;;;;;;;16.10;99.90;;;;;;5014614;28;19920;-80
2023/04/16 14:07:03;;;;;;;;;;;16.50;99.90;;;;;;4998719;28;19925;-79
2023/04/16 14:09:29;;;;;;;;;;;16.80;99.90;;;;;;5029256;28;20042;-79
2023/04/16 14:11:55;;;;;;;;;;;16.80;99.90;;;;;;5011015;28;19925;-79
2023/04/16 14:14:20;;;;;;;;;;;16.80;99.90;;;;;;5018114;28;19920;-79
2023/04/16 14:16:46;;;;;;;;;;;16.70;99.90;;;;;;5010709;28;19924;-80
2023/04/16 14:19:11;;;;;;;;;;;16.50;99.90;;;;;;5012379;28;19975;-81